sensor_id;sensor_type;location;lat;lon;timestamp;temperature;humidity
25170;DHT22;13129;48.012;10.352;2023-05-10T03:31:18;11.40;99.90
25170;DHT22;13129;48.012;10.352;2023-05-10T03:33:48;11.40;99.90
25170;DHT22;13129;48.012;10.352;2023-05-10T03:36:14;11.40;99.90
25170;DHT22;13129;48.012;10.352;2023-05-10T03:38:39;11.40;99.90
25170;DHT22;13129;48.012;10.352;2023-05-10T03:41:05;11.40;99.90
25170;DHT22;13129;48.012;10.352;2023-05-10T03:43:31;11.30;99.90
25170;DHT22;13129;48.012;10.352;2023-05-10T03:45:57;11.40;99.90
25170;DHT22;13129;48.012;10.352;2023-05-10T03:48:22;11.30;99.90
25170;DHT22;13129;48.012;10.352;2023-05-10T03:50:48;11.40;99.90
25170;DHT22;13129;48.012;10.352;2023-05-10T03:53:15;11.40;99.90
25170;DHT22;13129;48.012;10.352;2023-05-10T03:55:41;11.30;99.90
25170;DHT22;13129;48.012;10.352;2023-05-10T03:58:06;11.30;99.90
25170;DHT22;13129;48.012;10.352;2023-05-10T04:00:32;11.30;99.90
25170;DHT22;13129;48.012;10.352;2023-05-10T04:02:58;11.30;99.90
25170;DHT22;13129;48.012;10.352;2023-05-10T04:05:24;11.30;99.90
25170;DHT22;13129;48.012;10.352;2023-05-10T04:07:49;11.20;99.90
25170;DHT22;13129;48.012;10.352;2023-05-10T04:10:16;11.10;99.90
25170;DHT22;13129;48.012;10.352;2023-05-10T04:12:42;11.10;99.90
25170;DHT22;13129;48.012;10.352;2023-05-10T04:15:08;11.00;99.90
25170;DHT22;13129;48.012;10.352;2023-05-10T04:17:34;11.00;99.90
25170;DHT22;13129;48.012;10.352;2023-05-10T04:20:00;11.00;99.90
25170;DHT22;13129;48.012;10.352;2023-05-10T04:22:25;11.00;99.90
25170;DHT22;13129;48.012;10.352;2023-05-10T04:24:52;10.80;99.90
25170;DHT22;13129;48.012;10.352;2023-05-10T04:27:18;10.80;99.90
25170;DHT22;13129;48.012;10.352;2023-05-10T04:29:44;10.70;99.90
25170;DHT22;13129;48.012;10.352;2023-05-10T04:32:09;10.70;99.90
25170;DHT22;13129;48.012;10.352;2023-05-10T04:34:36;10.70;99.90
25170;DHT22;13129;48.012;10.352;2023-05-10T04:37:02;10.70;99.90
25170;DHT22;13129;48.012;10.352;2023-05-10T04:39:27;10.70;99.90
25170;DHT22;13129;48.012;10.352;2023-05-10T04:41:53;10.70;99.90
25170;DHT22;13129;48.012;10.352;2023-05-10T04:44:18;10.80;99.90
25170;DHT22;13129;48.012;10.352;2023-05-10T04:46:44;10.90;99.90
25170;DHT22;13129;48.012;10.352;2023-05-10T04:49:10;11.00;99.90
25170;DHT22;13129;48.012;10.352;2023-05-10T04:51:35;11.10;99.90
25170;DHT22;13129;48.012;10.352;2023-05-10T04:54:01;11.20;99.90
25170;DHT22;13129;48.012;10.352;2023-05-10T04:56:26;11.20;99.90
25170;DHT22;13129;48.012;10.352;2023-05-10T04:58:52;11.20;99.90
25170;DHT22;13129;48.012;10.352;2023-05-10T05:01:18;11.30;99.90
25170;DHT22;13129;48.012;10.352;2023-05-10T05:03:43;11.30;99.90
25170;DHT22;13129;48.012;10.352;2023-05-10T05:06:09;11.40;99.90
25170;DHT22;13129;48.012;10.352;2023-05-10T05:08:35;11.40;99.90
25170;DHT22;13129;48.012;10.352;2023-05-10T05:11:00;11.50;99.90
25170;DHT22;13129;48.012;10.352;2023-05-10T05:13:26;11.50;99.90
25170;DHT22;13129;48.012;10.352;2023-05-10T05:15:52;11.60;99.90
25170;DHT22;13129;48.012;10.352;2023-05-10T05:18:18;11.60;99.90
25170;DHT22;13129;48.012;10.352;2023-05-10T05:20:44;11.60;99.90
25170;DHT22;13129;48.012;10.352;2023-05-10T05:23:09;11.70;99.90
25170;DHT22;13129;48.012;10.352;2023-05-10T05:25:35;11.70;99.90
25170;DHT22;13129;48.012;10.352;2023-05-10T05:28:01;11.70;99.90
25170;DHT22;13129;48.012;10.352;2023-05-10T05:30:27;11.70;99.90
25170;DHT22;13129;48.012;10.352;2023-05-10T05:32:53;11.80;99.90
25170;DHT22;13129;48.012;10.352;2023-05-10T05:35:19;11.80;99.90
25170;DHT22;13129;48.012;10.352;2023-05-10T05:37:48;11.80;99.90
25170;DHT22;13129;48.012;10.352;2023-05-10T05:40:14;11.90;99.90
25170;DHT22;13129;48.012;10.352;2023-05-10T05:42:41;11.90;99.90
25170;DHT22;13129;48.012;10.352;2023-05-10T05:45:08;12.00;99.90
25170;DHT22;13129;48.012;10.352;2023-05-10T05:47:34;12.10;99.90
25170;DHT22;13129;48.012;10.352;2023-05-10T05:50:02;12.10;99.90
25170;DHT22;13129;48.012;10.352;2023-05-10T05:52:30;12.20;99.90
25170;DHT22;13129;48.012;10.352;2023-05-10T05:54:56;12.30;99.90
25170;DHT22;13129;48.012;10.352;2023-05-10T05:57:21;12.30;99.90
25170;DHT22;13129;48.012;10.352;2023-05-10T05:59:48;12.50;99.90
25170;DHT22;13129;48.012;10.352;2023-05-10T06:02:14;12.50;99.90
25170;DHT22;13129;48.012;10.352;2023-05-10T06:04:39;12.50;99.90
25170;DHT22;13129;48.012;10.352;2023-05-10T06:07:05;12.60;99.90
25170;DHT22;13129;48.012;10.352;2023-05-10T06:09:31;12.60;99.90
25170;DHT22;13129;48.012;10.352;2023-05-10T06:11:57;12.60;99.90
25170;DHT22;13129;48.012;10.352;2023-05-10T06:14:23;12.60;99.90
25170;DHT22;13129;48.012;10.352;2023-05-10T06:16:49;12.70;99.90
25170;DHT22;13129;48.012;10.352;2023-05-10T06:19:15;12.70;99.90
25170;DHT22;13129;48.012;10.352;2023-05-10T06:21:41;12.70;99.90
25170;DHT22;13129;48.012;10.352;2023-05-10T06:24:07;12.70;99.90
25170;DHT22;13129;48.012;10.352;2023-05-10T06:26:33;12.70;99.90
25170;DHT22;13129;48.012;10.352;2023-05-10T06:28:59;12.80;99.90
25170;DHT22;13129;48.012;10.352;2023-05-10T06:31:24;12.70;99.90
25170;DHT22;13129;48.012;10.352;2023-05-10T06:33:51;12.80;99.90
25170;DHT22;13129;48.012;10.352;2023-05-10T06:36:17;12.80;99.90
25170;DHT22;13129;48.012;10.352;2023-05-10T06:38:48;12.80;99.90
25170;DHT22;13129;48.012;10.352;2023-05-10T06:41:14;12.80;99.90
25170;DHT22;13129;48.012;10.352;2023-05-10T06:43:41;12.90;99.90
25170;DHT22;13129;48.012;10.352;2023-05-10T06:46:08;13.00;99.90
25170;DHT22;13129;48.012;10.352;2023-05-10T06:48:36;13.10;99.90
25170;DHT22;13129;48.012;10.352;2023-05-10T06:51:03;13.40;99.90
25170;DHT22;13129;48.012;10.352;2023-05-10T06:53:29;13.60;99.90
25170;DHT22;13129;48.012;10.352;2023-05-10T06:55:55;13.80;99.90
25170;DHT22;13129;48.012;10.352;2023-05-10T06:58:22;13.80;99.90
25170;DHT22;13129;48.012;10.352;2023-05-10T07:00:48;13.90;99.90
25170;DHT22;13129;48.012;10.352;2023-05-10T07:03:15;14.00;99.90
25170;DHT22;13129;48.012;10.352;2023-05-10T07:05:41;14.20;99.90
25170;DHT22;13129;48.012;10.352;2023-05-10T07:08:07;14.30;99.90
25170;DHT22;13129;48.012;10.352;2023-05-10T07:10:33;14.40;99.90
25170;DHT22;13129;48.012;10.352;2023-05-10T07:12:59;14.50;99.90
25170;DHT22;13129;48.012;10.352;2023-05-10T07:15:26;14.50;99.90
25170;DHT22;13129;48.012;10.352;2023-05-10T07:17:54;14.50;99.90
25170;DHT22;13129;48.012;10.352;2023-05-10T07:20:19;14.60;99.90
25170;DHT22;13129;48.012;10.352;2023-05-10T07:22:47;14.70;99.90
25170;DHT22;13129;48.012;10.352;2023-05-10T07:25:16;14.50;99.90
25170;DHT22;13129;48.012;10.352;2023-05-10T07:27:43;14.30;99.90
25170;DHT22;13129;48.012;10.352;2023-05-10T07:30:12;14.20;99.90
25170;DHT22;13129;48.012;10.352;2023-05-10T07:32:38;14.10;99.90
25170;DHT22;13129;48.012;10.352;2023-05-10T07:35:07;14.10;99.90
25170;DHT22;13129;48.012;10.352;2023-05-10T07:37:35;14.10;99.90
25170;DHT22;13129;48.012;10.352;2023-05-10T07:40:04;14.30;99.90
25170;DHT22;13129;48.012;10.352;2023-05-10T07:42:30;14.50;99.90
25170;DHT22;13129;48.012;10.352;2023-05-10T07:44:57;14.70;99.90
25170;DHT22;13129;48.012;10.352;2023-05-10T07:47:28;14.80;99.90
25170;DHT22;13129;48.012;10.352;2023-05-10T07:50:01;14.80;99.90
25170;DHT22;13129;48.012;10.352;2023-05-10T07:52:27;14.90;99.90
25170;DHT22;13129;48.012;10.352;2023-05-10T07:54:53;14.80;99.90
25170;DHT22;13129;48.012;10.352;2023-05-10T07:57:19;14.80;99.90
25170;DHT22;13129;48.012;10.352;2023-05-10T07:59:45;14.80;99.90
25170;DHT22;13129;48.012;10.352;2023-05-10T08:02:11;14.80;99.90
25170;DHT22;13129;48.012;10.352;2023-05-10T08:04:36;14.90;99.90
25170;DHT22;13129;48.012;10.352;2023-05-10T08:07:02;15.00;99.90
25170;DHT22;13129;48.012;10.352;2023-05-10T08:09:29;15.20;99.90
25170;DHT22;13129;48.012;10.352;2023-05-10T08:11:55;15.20;99.90
25170;DHT22;13129;48.012;10.352;2023-05-10T08:14:21;15.30;99.90
25170;DHT22;13129;48.012;10.352;2023-05-10T08:16:47;15.40;99.90
25170;DHT22;13129;48.012;10.352;2023-05-10T08:19:13;15.20;99.90
25170;DHT22;13129;48.012;10.352;2023-05-10T08:21:39;15.00;99.90
25170;DHT22;13129;48.012;10.352;2023-05-10T08:24:06;14.90;99.90
25170;DHT22;13129;48.012;10.352;2023-05-10T08:26:32;14.90;99.90
25170;DHT22;13129;48.012;10.352;2023-05-10T08:28:58;14.80;99.90
25170;DHT22;13129;48.012;10.352;2023-05-10T08:31:24;14.50;99.90
25170;DHT22;13129;48.012;10.352;2023-05-10T08:33:49;14.30;99.90
25170;DHT22;13129;48.012;10.352;2023-05-10T08:36:16;14.20;99.90
25170;DHT22;13129;48.012;10.352;2023-05-10T08:38:50;14.20;99.90
25170;DHT22;13129;48.012;10.352;2023-05-10T08:41:16;14.20;99.90
25170;DHT22;13129;48.012;10.352;2023-05-10T08:43:43;14.10;99.90
25170;DHT22;13129;48.012;10.352;2023-05-10T08:46:18;14.20;99.90
25170;DHT22;13129;48.012;10.352;2023-05-10T08:48:45;14.20;99.90
25170;DHT22;13129;48.012;10.352;2023-05-10T08:51:22;14.10;99.90
25170;DHT22;13129;48.012;10.352;2023-05-10T08:53:49;14.00;99.90
25170;DHT22;13129;48.012;10.352;2023-05-10T08:56:15;13.90;99.90
25170;DHT22;13129;48.012;10.352;2023-05-10T08:58:43;13.90;99.90
25170;DHT22;13129;48.012;10.352;2023-05-10T09:01:09;13.90;99.90
25170;DHT22;13129;48.012;10.352;2023-05-10T09:03:35;14.00;99.90
25170;DHT22;13129;48.012;10.352;2023-05-10T09:06:03;14.30;99.90
25170;DHT22;13129;48.012;10.352;2023-05-10T09:08:30;14.70;99.90
25170;DHT22;13129;48.012;10.352;2023-05-10T09:10:56;15.10;99.90
25170;DHT22;13129;48.012;10.352;2023-05-10T09:13:23;15.30;99.90
25170;DHT22;13129;48.012;10.352;2023-05-10T09:15:50;15.50;99.90
25170;DHT22;13129;48.012;10.352;2023-05-10T09:18:16;15.70;99.90
25170;DHT22;13129;48.012;10.352;2023-05-10T09:20:42;15.70;99.90
25170;DHT22;13129;48.012;10.352;2023-05-10T09:23:08;15.70;99.90
25170;DHT22;13129;48.012;10.352;2023-05-10T09:25:34;15.60;99.90
25170;DHT22;13129;48.012;10.352;2023-05-10T09:28:00;15.60;99.90
25170;DHT22;13129;48.012;10.352;2023-05-10T09:30:30;15.50;99.90
25170;DHT22;13129;48.012;10.352;2023-05-10T09:32:57;15.50;99.90
25170;DHT22;13129;48.012;10.352;2023-05-10T09:35:24;15.30;99.90
25170;DHT22;13129;48.012;10.352;2023-05-10T09:37:52;15.00;99.90
25170;DHT22;13129;48.012;10.352;2023-05-10T09:40:23;14.60;99.90
25170;DHT22;13129;48.012;10.352;2023-05-10T09:42:59;14.30;99.90
25170;DHT22;13129;48.012;10.352;2023-05-10T09:45:29;14.10;99.90
25170;DHT22;13129;48.012;10.352;2023-05-10T09:47:56;14.20;99.90
25170;DHT22;13129;48.012;10.352;2023-05-10T09:50:22;14.40;99.90
25170;DHT22;13129;48.012;10.352;2023-05-10T09:55:21;15.00;99.90
25170;DHT22;13129;48.012;10.352;2023-05-10T09:57:48;15.10;99.90
25170;DHT22;13129;48.012;10.352;2023-05-10T10:00:18;15.20;99.90
25170;DHT22;13129;48.012;10.352;2023-05-10T10:02:54;15.10;99.90
25170;DHT22;13129;48.012;10.352;2023-05-10T10:05:20;14.80;99.90
25170;DHT22;13129;48.012;10.352;2023-05-10T10:07:46;14.30;99.90
25170;DHT22;13129;48.012;10.352;2023-05-10T10:10:12;14.20;99.90
25170;DHT22;13129;48.012;10.352;2023-05-10T10:12:39;14.20;99.90
25170;DHT22;13129;48.012;10.352;2023-05-10T10:15:07;14.20;99.90
25170;DHT22;13129;48.012;10.352;2023-05-10T10:17:36;14.20;99.90
25170;DHT22;13129;48.012;10.352;2023-05-10T10:20:03;14.40;99.90
25170;DHT22;13129;48.012;10.352;2023-05-10T10:22:29;14.70;99.90
25170;DHT22;13129;48.012;10.352;2023-05-10T10:24:55;14.80;99.90
25170;DHT22;13129;48.012;10.352;2023-05-10T10:27:47;15.00;99.90
25170;DHT22;13129;48.012;10.352;2023-05-10T10:33:36;14.60;99.90
25170;DHT22;13129;48.012;10.352;2023-05-10T10:36:04;14.60;99.90
25170;DHT22;13129;48.012;10.352;2023-05-10T10:38:55;14.70;99.90
25170;DHT22;13129;48.012;10.352;2023-05-10T10:41:29;15.00;99.90
25170;DHT22;13129;48.012;10.352;2023-05-10T10:44:24;15.30;99.90
25170;DHT22;13129;48.012;10.352;2023-05-10T10:52:25;16.10;99.90
25170;DHT22;13129;48.012;10.352;2023-05-10T10:57:51;15.90;99.90
25170;DHT22;13129;48.012;10.352;2023-05-10T11:00:38;15.80;99.90
25170;DHT22;13129;48.012;10.352;2023-05-10T11:03:08;15.70;99.90
25170;DHT22;13129;48.012;10.352;2023-05-10T11:08:25;15.60;99.90
25170;DHT22;13129;48.012;10.352;2023-05-10T11:11:03;15.50;99.90
25170;DHT22;13129;48.012;10.352;2023-05-10T11:13:38;15.20;99.90
25170;DHT22;13129;48.012;10.352;2023-05-10T11:16:25;14.80;99.90
25170;DHT22;13129;48.012;10.352;2023-05-10T11:18:59;14.40;99.90
25170;DHT22;13129;48.012;10.352;2023-05-10T11:21:28;14.20;99.90
25170;DHT22;13129;48.012;10.352;2023-05-10T11:23:56;14.00;99.90
25170;DHT22;13129;48.012;10.352;2023-05-10T11:26:33;13.90;99.90
25170;DHT22;13129;48.012;10.352;2023-05-10T11:28:59;13.80;99.90
25170;DHT22;13129;48.012;10.352;2023-05-10T11:31:27;13.80;99.90
25170;DHT22;13129;48.012;10.352;2023-05-10T11:33:55;13.70;99.90
25170;DHT22;13129;48.012;10.352;2023-05-10T11:36:27;13.80;99.90
25170;DHT22;13129;48.012;10.352;2023-05-10T11:38:55;13.90;99.90
25170;DHT22;13129;48.012;10.352;2023-05-10T11:41:23;13.80;99.90
25170;DHT22;13129;48.012;10.352;2023-05-10T11:43:54;13.30;99.90
25170;DHT22;13129;48.012;10.352;2023-05-10T11:46:22;12.90;99.90
25170;DHT22;13129;48.012;10.352;2023-05-10T11:48:50;12.40;99.90
25170;DHT22;13129;48.012;10.352;2023-05-10T11:51:23;12.10;99.90
25170;DHT22;13129;48.012;10.352;2023-05-10T11:53:54;11.90;99.90
25170;DHT22;13129;48.012;10.352;2023-05-10T11:56:20;11.70;99.90
25170;DHT22;13129;48.012;10.352;2023-05-10T11:58:55;11.50;99.90
25170;DHT22;13129;48.012;10.352;2023-05-10T12:01:21;11.40;99.90
25170;DHT22;13129;48.012;10.352;2023-05-10T12:03:49;11.40;99.90
25170;DHT22;13129;48.012;10.352;2023-05-10T12:06:15;11.40;99.90
25170;DHT22;13129;48.012;10.352;2023-05-10T12:08:46;11.50;99.90
25170;DHT22;13129;48.012;10.352;2023-05-10T12:11:12;11.60;99.90
25170;DHT22;13129;48.012;10.352;2023-05-10T12:13:43;11.80;99.90
25170;DHT22;13129;48.012;10.352;2023-05-10T12:16:41;11.90;99.90
25170;DHT22;13129;48.012;10.352;2023-05-10T12:19:08;12.10;99.90
25170;DHT22;13129;48.012;10.352;2023-05-10T12:21:34;12.10;99.90
25170;DHT22;13129;48.012;10.352;2023-05-10T12:24:02;12.20;99.90
25170;DHT22;13129;48.012;10.352;2023-05-10T12:26:28;12.20;99.90
25170;DHT22;13129;48.012;10.352;2023-05-10T12:28:54;12.00;99.90
25170;DHT22;13129;48.012;10.352;2023-05-10T12:31:20;11.90;99.90
25170;DHT22;13129;48.012;10.352;2023-05-10T12:33:46;11.90;99.90
25170;DHT22;13129;48.012;10.352;2023-05-10T12:36:15;11.80;99.90
25170;DHT22;13129;48.012;10.352;2023-05-10T12:38:42;11.80;99.90
25170;DHT22;13129;48.012;10.352;2023-05-10T12:41:10;11.80;99.90
25170;DHT22;13129;48.012;10.352;2023-05-10T12:43:37;11.70;99.90
25170;DHT22;13129;48.012;10.352;2023-05-10T12:46:12;11.70;99.90
25170;DHT22;13129;48.012;10.352;2023-05-10T12:48:39;11.70;99.90
25170;DHT22;13129;48.012;10.352;2023-05-10T12:51:05;11.70;99.90
25170;DHT22;13129;48.012;10.352;2023-05-10T12:53:35;11.70;99.90
25170;DHT22;13129;48.012;10.352;2023-05-10T12:56:01;11.80;99.90
25170;DHT22;13129;48.012;10.352;2023-05-10T12:58:27;11.80;99.90
25170;DHT22;13129;48.012;10.352;2023-05-10T13:00:52;11.90;99.90
25170;DHT22;13129;48.012;10.352;2023-05-10T13:03:18;12.00;99.90
25170;DHT22;13129;48.012;10.352;2023-05-10T13:05:44;12.10;99.90
25170;DHT22;13129;48.012;10.352;2023-05-10T13:08:10;12.10;99.90
25170;DHT22;13129;48.012;10.352;2023-05-10T13:10:35;12.20;99.90
25170;DHT22;13129;48.012;10.352;2023-05-10T13:13:01;12.20;99.90
25170;DHT22;13129;48.012;10.352;2023-05-10T13:15:27;12.20;99.90
25170;DHT22;13129;48.012;10.352;2023-05-10T13:17:53;12.40;99.90
25170;DHT22;13129;48.012;10.352;2023-05-10T13:20:19;12.60;99.90
25170;DHT22;13129;48.012;10.352;2023-05-10T13:22:45;12.60;99.90
25170;DHT22;13129;48.012;10.352;2023-05-10T13:25:11;12.70;99.90
25170;DHT22;13129;48.012;10.352;2023-05-10T13:27:40;12.80;99.90
25170;DHT22;13129;48.012;10.352;2023-05-10T13:30:07;12.90;99.90
25170;DHT22;13129;48.012;10.352;2023-05-10T13:32:33;12.90;99.90
25170;DHT22;13129;48.012;10.352;2023-05-10T13:34:59;13.00;99.90
25170;DHT22;13129;48.012;10.352;2023-05-10T13:37:25;13.00;99.90
25170;DHT22;13129;48.012;10.352;2023-05-10T13:39:50;13.10;99.90
25170;DHT22;13129;48.012;10.352;2023-05-10T13:42:17;13.20;99.90
25170;DHT22;13129;48.012;10.352;2023-05-10T13:44:43;13.30;99.90
25170;DHT22;13129;48.012;10.352;2023-05-10T13:47:08;13.30;99.90
25170;DHT22;13129;48.012;10.352;2023-05-10T13:49:34;13.40;99.90
25170;DHT22;13129;48.012;10.352;2023-05-10T13:52:00;13.50;99.90
25170;DHT22;13129;48.012;10.352;2023-05-10T13:54:34;13.50;99.90
25170;DHT22;13129;48.012;10.352;2023-05-10T13:57:01;13.40;99.90
25170;DHT22;13129;48.012;10.352;2023-05-10T13:59:27;13.20;99.90
25170;DHT22;13129;48.012;10.352;2023-05-10T14:01:52;13.30;99.90
25170;DHT22;13129;48.012;10.352;2023-05-10T14:04:18;13.30;99.90
25170;DHT22;13129;48.012;10.352;2023-05-10T14:06:44;13.30;99.90
25170;DHT22;13129;48.012;10.352;2023-05-10T14:09:09;13.50;99.90
25170;DHT22;13129;48.012;10.352;2023-05-10T14:11:35;13.50;99.90
25170;DHT22;13129;48.012;10.352;2023-05-10T14:14:01;13.60;99.90
25170;DHT22;13129;48.012;10.352;2023-05-10T14:16:26;13.60;99.90
25170;DHT22;13129;48.012;10.352;2023-05-10T14:18:52;13.70;99.90
25170;DHT22;13129;48.012;10.352;2023-05-10T14:21:18;13.80;99.90
25170;DHT22;13129;48.012;10.352;2023-05-10T14:23:44;13.90;99.90
25170;DHT22;13129;48.012;10.352;2023-05-10T14:26:09;13.80;99.90
25170;DHT22;13129;48.012;10.352;2023-05-10T14:28:35;13.80;99.90
25170;DHT22;13129;48.012;10.352;2023-05-10T14:31:01;13.70;99.90
25170;DHT22;13129;48.012;10.352;2023-05-10T14:33:27;13.70;99.90
25170;DHT22;13129;48.012;10.352;2023-05-10T14:35:54;13.60;99.90
25170;DHT22;13129;48.012;10.352;2023-05-10T14:38:22;13.50;99.90
25170;DHT22;13129;48.012;10.352;2023-05-10T14:40:47;13.50;99.90
25170;DHT22;13129;48.012;10.352;2023-05-10T14:43:13;13.50;99.90
25170;DHT22;13129;48.012;10.352;2023-05-10T14:45:39;13.50;99.90
25170;DHT22;13129;48.012;10.352;2023-05-10T14:48:05;13.40;99.90
25170;DHT22;13129;48.012;10.352;2023-05-10T14:50:31;13.30;99.90
25170;DHT22;13129;48.012;10.352;2023-05-10T14:52:57;13.20;99.90
25170;DHT22;13129;48.012;10.352;2023-05-10T14:55:24;12.90;99.90
25170;DHT22;13129;48.012;10.352;2023-05-10T14:57:50;12.60;99.90
25170;DHT22;13129;48.012;10.352;2023-05-10T15:00:16;12.40;99.90
25170;DHT22;13129;48.012;10.352;2023-05-10T15:02:42;12.30;99.90
25170;DHT22;13129;48.012;10.352;2023-05-10T15:05:08;12.20;99.90
25170;DHT22;13129;48.012;10.352;2023-05-10T15:07:33;12.20;99.90
25170;DHT22;13129;48.012;10.352;2023-05-10T15:09:59;12.20;99.90
25170;DHT22;13129;48.012;10.352;2023-05-10T15:12:25;12.20;99.90
25170;DHT22;13129;48.012;10.352;2023-05-10T15:14:51;12.20;99.90
25170;DHT22;13129;48.012;10.352;2023-05-10T15:17:16;12.00;99.90
25170;DHT22;13129;48.012;10.352;2023-05-10T15:19:42;11.90;99.90
25170;DHT22;13129;48.012;10.352;2023-05-10T15:22:08;11.90;99.90
25170;DHT22;13129;48.012;10.352;2023-05-10T15:24:34;11.90;99.90
25170;DHT22;13129;48.012;10.352;2023-05-10T15:27:00;11.90;99.90
25170;DHT22;13129;48.012;10.352;2023-05-10T15:29:26;11.90;99.90
25170;DHT22;13129;48.012;10.352;2023-05-10T15:31:52;11.90;99.90
25170;DHT22;13129;48.012;10.352;2023-05-10T15:34:18;11.80;99.90
25170;DHT22;13129;48.012;10.352;2023-05-10T15:36:44;11.70;99.90
25170;DHT22;13129;48.012;10.352;2023-05-10T15:39:11;11.60;99.90
25170;DHT22;13129;48.012;10.352;2023-05-10T15:41:37;11.60;99.90
25170;DHT22;13129;48.012;10.352;2023-05-10T15:44:03;11.60;99.90
25170;DHT22;13129;48.012;10.352;2023-05-10T15:46:29;11.60;99.90
25170;DHT22;13129;48.012;10.352;2023-05-10T15:48:56;11.60;99.90
25170;DHT22;13129;48.012;10.352;2023-05-10T15:51:22;11.60;99.90
25170;DHT22;13129;48.012;10.352;2023-05-10T15:53:47;11.60;99.90
25170;DHT22;13129;48.012;10.352;2023-05-10T15:56:13;11.50;99.90
25170;DHT22;13129;48.012;10.352;2023-05-10T15:58:40;11.50;99.90
25170;DHT22;13129;48.012;10.352;2023-05-10T16:01:06;11.50;99.90
25170;DHT22;13129;48.012;10.352;2023-05-10T16:03:35;11.50;99.90
25170;DHT22;13129;48.012;10.352;2023-05-10T16:06:01;11.50;99.90
25170;DHT22;13129;48.012;10.352;2023-05-10T16:08:27;11.50;99.90
25170;DHT22;13129;48.012;10.352;2023-05-10T16:10:55;11.50;99.90
25170;DHT22;13129;48.012;10.352;2023-05-10T16:13:21;11.40;99.90
25170;DHT22;13129;48.012;10.352;2023-05-10T16:15:47;11.30;99.90
25170;DHT22;13129;48.012;10.352;2023-05-10T16:18:13;11.30;99.90
25170;DHT22;13129;48.012;10.352;2023-05-10T16:20:38;11.20;99.90
25170;DHT22;13129;48.012;10.352;2023-05-10T16:23:06;11.10;99.90
25170;DHT22;13129;48.012;10.352;2023-05-10T16:25:32;11.10;99.90
25170;DHT22;13129;48.012;10.352;2023-05-10T16:27:58;11.00;99.90
25170;DHT22;13129;48.012;10.352;2023-05-10T16:30:24;11.00;99.90
25170;DHT22;13129;48.012;10.352;2023-05-10T16:32:52;10.90;99.90
25170;DHT22;13129;48.012;10.352;2023-05-10T16:35:18;10.80;99.90
25170;DHT22;13129;48.012;10.352;2023-05-10T16:37:44;10.80;99.90
25170;DHT22;13129;48.012;10.352;2023-05-10T16:40:09;10.70;99.90
25170;DHT22;13129;48.012;10.352;2023-05-10T16:42:35;10.70;99.90
25170;DHT22;13129;48.012;10.352;2023-05-10T16:45:02;10.70;99.90
25170;DHT22;13129;48.012;10.352;2023-05-10T16:47:36;10.60;99.90
25170;DHT22;13129;48.012;10.352;2023-05-10T16:50:03;10.60;99.90
25170;DHT22;13129;48.012;10.352;2023-05-10T16:52:31;10.60;99.90
25170;DHT22;13129;48.012;10.352;2023-05-10T16:54:57;10.60;99.90
25170;DHT22;13129;48.012;10.352;2023-05-10T16:57:23;10.50;99.90
25170;DHT22;13129;48.012;10.352;2023-05-10T16:59:49;10.40;99.90
25170;DHT22;13129;48.012;10.352;2023-05-10T17:02:18;10.50;99.90
25170;DHT22;13129;48.012;10.352;2023-05-10T17:04:44;10.40;99.90
25170;DHT22;13129;48.012;10.352;2023-05-10T17:07:09;10.50;99.90
25170;DHT22;13129;48.012;10.352;2023-05-10T17:09:37;10.50;99.90
25170;DHT22;13129;48.012;10.352;2023-05-10T17:12:03;10.50;99.90
25170;DHT22;13129;48.012;10.352;2023-05-10T17:14:29;10.60;99.90
25170;DHT22;13129;48.012;10.352;2023-05-10T17:16:54;10.50;99.90
25170;DHT22;13129;48.012;10.352;2023-05-10T17:19:20;10.50;99.90
25170;DHT22;13129;48.012;10.352;2023-05-10T17:21:46;10.50;99.90
25170;DHT22;13129;48.012;10.352;2023-05-10T17:24:12;10.50;99.90
25170;DHT22;13129;48.012;10.352;2023-05-10T17:26:38;10.50;99.90
25170;DHT22;13129;48.012;10.352;2023-05-10T17:29:04;10.40;99.90
25170;DHT22;13129;48.012;10.352;2023-05-10T17:31:29;10.50;99.90
25170;DHT22;13129;48.012;10.352;2023-05-10T17:33:56;10.40;99.90
25170;DHT22;13129;48.012;10.352;2023-05-10T17:36:22;10.40;99.90
25170;DHT22;13129;48.012;10.352;2023-05-10T17:38:48;10.30;99.90
25170;DHT22;13129;48.012;10.352;2023-05-10T17:41:13;10.30;99.90
25170;DHT22;13129;48.012;10.352;2023-05-10T17:43:39;10.30;99.90
25170;DHT22;13129;48.012;10.352;2023-05-10T17:46:05;10.20;99.90
25170;DHT22;13129;48.012;10.352;2023-05-10T17:48:30;10.20;99.90
25170;DHT22;13129;48.012;10.352;2023-05-10T17:50:56;10.20;99.90
25170;DHT22;13129;48.012;10.352;2023-05-10T17:53:22;10.20;99.90
25170;DHT22;13129;48.012;10.352;2023-05-10T17:55:49;10.20;99.90
25170;DHT22;13129;48.012;10.352;2023-05-10T17:58:15;10.20;99.90
25170;DHT22;13129;48.012;10.352;2023-05-10T18:00:41;10.20;99.90
25170;DHT22;13129;48.012;10.352;2023-05-10T18:03:06;10.20;99.90
25170;DHT22;13129;48.012;10.352;2023-05-10T18:05:36;10.20;99.90
25170;DHT22;13129;48.012;10.352;2023-05-10T18:08:03;10.20;99.90
25170;DHT22;13129;48.012;10.352;2023-05-10T18:10:30;10.20;99.90
25170;DHT22;13129;48.012;10.352;2023-05-10T18:12:55;10.10;99.90
25170;DHT22;13129;48.012;10.352;2023-05-10T18:15:23;10.10;99.90
25170;DHT22;13129;48.012;10.352;2023-05-10T18:17:49;10.00;99.90
25170;DHT22;13129;48.012;10.352;2023-05-10T18:20:14;10.00;99.90
25170;DHT22;13129;48.012;10.352;2023-05-10T18:22:40;10.00;99.90
25170;DHT22;13129;48.012;10.352;2023-05-10T18:25:06;10.00;99.90
25170;DHT22;13129;48.012;10.352;2023-05-10T18:27:32;10.00;99.90
25170;DHT22;13129;48.012;10.352;2023-05-10T18:29:57;10.00;99.90
25170;DHT22;13129;48.012;10.352;2023-05-10T18:32:23;9.90;99.90
25170;DHT22;13129;48.012;10.352;2023-05-10T18:34:49;10.00;99.90
25170;DHT22;13129;48.012;10.352;2023-05-10T18:37:14;9.90;99.90
25170;DHT22;13129;48.012;10.352;2023-05-10T18:39:40;9.90;99.90
25170;DHT22;13129;48.012;10.352;2023-05-10T18:42:07;9.80;99.90
25170;DHT22;13129;48.012;10.352;2023-05-10T18:44:33;9.80;99.90
25170;DHT22;13129;48.012;10.352;2023-05-10T18:46:58;9.80;99.90
25170;DHT22;13129;48.012;10.352;2023-05-10T18:49:24;9.80;99.90
25170;DHT22;13129;48.012;10.352;2023-05-10T18:51:51;9.80;99.90
25170;DHT22;13129;48.012;10.352;2023-05-10T18:54:16;9.70;99.90
25170;DHT22;13129;48.012;10.352;2023-05-10T18:56:42;9.70;99.90
25170;DHT22;13129;48.012;10.352;2023-05-10T18:59:10;9.60;99.90
25170;DHT22;13129;48.012;10.352;2023-05-10T19:01:36;9.60;99.90
25170;DHT22;13129;48.012;10.352;2023-05-10T19:04:02;9.50;99.90